sensor_id;sensor_type;location;lat;lon;timestamp;pressure;altitude;pressure_sealevel;temperature;humidity
50349;BME280;36250;48.740;22.174;2023-03-30T00:02:05;101124.56;;;1.24;57.68
50349;BME280;36250;48.740;22.174;2023-03-30T00:04:30;101124.72;;;1.30;57.81
50349;BME280;36250;48.740;22.174;2023-03-30T00:07:01;101132.97;;;1.29;58.22
50349;BME280;36250;48.740;22.174;2023-03-30T00:09:26;101124.88;;;1.13;58.64
50349;BME280;36250;48.740;22.174;2023-03-30T00:11:55;101123.91;;;1.14;59.24
50349;BME280;36250;48.740;22.174;2023-03-30T00:14:21;101125.22;;;1.18;59.32
50349;BME280;36250;48.740;22.174;2023-03-30T00:16:54;101122.03;;;1.22;59.39
50349;BME280;36250;48.740;22.174;2023-03-30T00:19:19;101125.56;;;1.31;59.39
50349;BME280;36250;48.740;22.174;2023-03-30T00:21:46;101122.22;;;1.37;59.10
50349;BME280;36250;48.740;22.174;2023-03-30T00:24:11;101122.06;;;1.39;59.28
50349;BME280;36250;48.740;22.174;2023-03-30T00:26:36;101118.19;;;1.33;59.28
50349;BME280;36250;48.740;22.174;2023-03-30T00:29:02;101122.72;;;1.32;59.08
50349;BME280;36250;48.740;22.174;2023-03-30T00:31:27;101121.53;;;1.35;59.06
50349;BME280;36250;48.740;22.174;2023-03-30T00:33:52;101120.41;;;1.29;59.57
50349;BME280;36250;48.740;22.174;2023-03-30T00:36:18;101116.69;;;1.30;59.40
50349;BME280;36250;48.740;22.174;2023-03-30T00:38:44;101112.84;;;1.33;59.74
50349;BME280;36250;48.740;22.174;2023-03-30T00:41:09;101122.91;;;1.39;59.49
50349;BME280;36250;48.740;22.174;2023-03-30T00:43:57;101121.53;;;1.43;58.40
50349;BME280;36250;48.740;22.174;2023-03-30T00:46:23;101111.66;;;1.44;59.29
50349;BME280;36250;48.740;22.174;2023-03-30T00:48:49;101112.50;;;1.44;58.97
50349;BME280;36250;48.740;22.174;2023-03-30T00:51:15;101109.97;;;1.43;59.31
50349;BME280;36250;48.740;22.174;2023-03-30T00:53:42;101101.44;;;1.39;59.87
50349;BME280;36250;48.740;22.174;2023-03-30T00:56:12;101100.94;;;1.36;60.06
50349;BME280;36250;48.740;22.174;2023-03-30T00:58:40;101102.09;;;1.33;60.08
50349;BME280;36250;48.740;22.174;2023-03-30T01:01:08;101094.75;;;1.19;60.53
50349;BME280;36250;48.740;22.174;2023-03-30T01:03:54;101094.41;;;1.06;61.50
50349;BME280;36250;48.740;22.174;2023-03-30T01:06:22;101092.03;;;1.03;62.03
50349;BME280;36250;48.740;22.174;2023-03-30T01:08:51;101092.38;;;0.92;62.24
50349;BME280;36250;48.740;22.174;2023-03-30T01:11:17;101096.72;;;0.77;62.87
50349;BME280;36250;48.740;22.174;2023-03-30T01:13:48;101098.38;;;0.70;63.34
50349;BME280;36250;48.740;22.174;2023-03-30T01:19:07;101088.00;;;0.58;64.20
50349;BME280;36250;48.740;22.174;2023-03-30T01:30:47;101096.34;;;0.55;64.20
50349;BME280;36250;48.740;22.174;2023-03-30T01:39:27;101097.38;;;0.71;63.61
50349;BME280;36250;48.740;22.174;2023-03-30T01:45:00;101097.38;;;0.71;63.49
50349;BME280;36250;48.740;22.174;2023-03-30T01:50:14;101104.75;;;0.77;63.55
50349;BME280;36250;48.740;22.174;2023-03-30T02:00:47;101109.91;;;0.62;63.84
50349;BME280;36250;48.740;22.174;2023-03-30T02:03:30;101093.50;;;0.57;64.15
50349;BME280;36250;48.740;22.174;2023-03-30T02:06:24;101097.34;;;0.54;63.92
50349;BME280;36250;48.740;22.174;2023-03-30T02:08:49;101102.88;;;0.53;63.91
50349;BME280;36250;48.740;22.174;2023-03-30T02:11:15;101105.03;;;0.49;63.87
50349;BME280;36250;48.740;22.174;2023-03-30T02:13:41;101107.03;;;0.47;63.95
50349;BME280;36250;48.740;22.174;2023-03-30T02:16:12;101092.31;;;0.43;63.74
50349;BME280;36250;48.740;22.174;2023-03-30T02:18:40;101095.63;;;0.37;64.41
50349;BME280;36250;48.740;22.174;2023-03-30T02:21:05;101100.28;;;0.35;64.09
50349;BME280;36250;48.740;22.174;2023-03-30T02:23:34;101100.78;;;0.31;64.36
50349;BME280;36250;48.740;22.174;2023-03-30T02:26:02;101100.97;;;0.29;64.39
50349;BME280;36250;48.740;22.174;2023-03-30T02:28:29;101106.47;;;0.28;64.73
50349;BME280;36250;48.740;22.174;2023-03-30T02:30:54;101102.25;;;0.25;65.07
50349;BME280;36250;48.740;22.174;2023-03-30T02:33:30;101104.28;;;0.23;64.71
50349;BME280;36250;48.740;22.174;2023-03-30T02:44:31;101102.94;;;0.19;63.85
50349;BME280;36250;48.740;22.174;2023-03-30T02:49:56;101101.56;;;0.15;62.86
50349;BME280;36250;48.740;22.174;2023-03-30T02:55:02;101102.25;;;0.25;60.84
50349;BME280;36250;48.740;22.174;2023-03-30T03:03:12;101098.28;;;0.37;59.56
50349;BME280;36250;48.740;22.174;2023-03-30T03:05:40;101098.28;;;0.37;59.06
50349;BME280;36250;48.740;22.174;2023-03-30T03:08:07;101110.03;;;0.36;59.45
50349;BME280;36250;48.740;22.174;2023-03-30T03:10:33;101105.66;;;0.35;59.66
50349;BME280;36250;48.740;22.174;2023-03-30T03:13:01;101105.66;;;0.35;59.55
50349;BME280;36250;48.740;22.174;2023-03-30T03:15:26;101110.16;;;0.35;59.08
50349;BME280;36250;48.740;22.174;2023-03-30T03:17:51;101105.66;;;0.35;58.94
50349;BME280;36250;48.740;22.174;2023-03-30T03:20:17;101114.34;;;0.37;58.50
50349;BME280;36250;48.740;22.174;2023-03-30T03:22:42;101100.97;;;0.37;57.93
50349;BME280;36250;48.740;22.174;2023-03-30T03:25:08;101105.69;;;0.43;58.14
50349;BME280;36250;48.740;22.174;2023-03-30T03:27:34;101104.66;;;0.44;57.87
50349;BME280;36250;48.740;22.174;2023-03-30T03:29:59;101113.41;;;0.46;57.39
50349;BME280;36250;48.740;22.174;2023-03-30T03:32:25;101116.91;;;0.47;57.29
50349;BME280;36250;48.740;22.174;2023-03-30T03:34:50;101118.41;;;0.49;57.49
50349;BME280;36250;48.740;22.174;2023-03-30T03:37:15;101126.78;;;0.54;57.76
50349;BME280;36250;48.740;22.174;2023-03-30T03:39:41;101121.63;;;0.53;58.56
50349;BME280;36250;48.740;22.174;2023-03-30T03:42:06;101122.47;;;0.53;58.35
50349;BME280;36250;48.740;22.174;2023-03-30T03:44:32;101129.78;;;0.51;59.17
50349;BME280;36250;48.740;22.174;2023-03-30T03:46:57;101124.78;;;0.48;60.08
50349;BME280;36250;48.740;22.174;2023-03-30T03:49:23;101127.03;;;0.27;60.24
50349;BME280;36250;48.740;22.174;2023-03-30T03:51:48;101121.25;;;0.06;61.83
50349;BME280;36250;48.740;22.174;2023-03-30T03:54:14;101115.84;;;-0.02;62.71
50349;BME280;36250;48.740;22.174;2023-03-30T03:56:39;101120.84;;;-0.07;63.71
50349;BME280;36250;48.740;22.174;2023-03-30T03:59:05;101121.19;;;-0.10;64.63
50349;BME280;36250;48.740;22.174;2023-03-30T04:01:30;101117.34;;;-0.08;64.28
50349;BME280;36250;48.740;22.174;2023-03-30T04:03:56;101111.03;;;0.02;64.37
50349;BME280;36250;48.740;22.174;2023-03-30T04:06:21;101116.59;;;0.08;64.98
50349;BME280;36250;48.740;22.174;2023-03-30T04:08:47;101111.75;;;0.12;65.09
50349;BME280;36250;48.740;22.174;2023-03-30T04:11:12;101113.06;;;0.08;64.82
50349;BME280;36250;48.740;22.174;2023-03-30T04:13:38;101112.44;;;0.14;64.78
50349;BME280;36250;48.740;22.174;2023-03-30T04:16:05;101115.66;;;0.25;64.85
50349;BME280;36250;48.740;22.174;2023-03-30T04:18:31;101110.69;;;0.38;64.55
50349;BME280;36250;48.740;22.174;2023-03-30T04:20:58;101112.56;;;0.46;64.23
50349;BME280;36250;48.740;22.174;2023-03-30T04:23:26;101112.72;;;0.52;64.05
50349;BME280;36250;48.740;22.174;2023-03-30T04:26:02;101116.94;;;0.55;63.53
50349;BME280;36250;48.740;22.174;2023-03-30T04:28:29;101120.81;;;0.60;64.33
50349;BME280;36250;48.740;22.174;2023-03-30T04:30:57;101109.78;;;0.63;64.55
50349;BME280;36250;48.740;22.174;2023-03-30T04:33:23;101114.13;;;0.73;64.61
50349;BME280;36250;48.740;22.174;2023-03-30T04:35:49;101117.16;;;0.78;64.92
50349;BME280;36250;48.740;22.174;2023-03-30T04:38:14;101107.44;;;0.85;64.77
50349;BME280;36250;48.740;22.174;2023-03-30T04:40:51;101110.81;;;0.95;64.66
50349;BME280;36250;48.740;22.174;2023-03-30T04:43:17;101117.84;;;1.04;64.91
50349;BME280;36250;48.740;22.174;2023-03-30T04:45:51;101112.84;;;1.17;64.50
50349;BME280;36250;48.740;22.174;2023-03-30T04:48:18;101110.66;;;1.28;64.27
50349;BME280;36250;48.740;22.174;2023-03-30T04:50:45;101116.84;;;1.37;64.34
50349;BME280;36250;48.740;22.174;2023-03-30T04:53:11;101117.88;;;1.36;64.94
50349;BME280;36250;48.740;22.174;2023-03-30T04:55:39;101115.53;;;1.41;64.93
50349;BME280;36250;48.740;22.174;2023-03-30T04:58:04;101120.88;;;1.49;64.78
50349;BME280;36250;48.740;22.174;2023-03-30T05:00:29;101117.66;;;1.62;64.40
50349;BME280;36250;48.740;22.174;2023-03-30T05:02:55;101118.66;;;1.69;63.71
50349;BME280;36250;48.740;22.174;2023-03-30T05:05:20;101112.09;;;1.71;62.84
50349;BME280;36250;48.740;22.174;2023-03-30T05:07:45;101114.25;;;1.84;63.39
50349;BME280;36250;48.740;22.174;2023-03-30T05:10:11;101111.38;;;1.93;63.86
50349;BME280;36250;48.740;22.174;2023-03-30T05:12:36;101109.34;;;2.04;64.02
50349;BME280;36250;48.740;22.174;2023-03-30T05:15:02;101105.63;;;2.13;63.93
50349;BME280;36250;48.740;22.174;2023-03-30T05:17:31;101113.16;;;2.17;64.03
50349;BME280;36250;48.740;22.174;2023-03-30T05:19:57;101104.59;;;2.22;63.84
50349;BME280;36250;48.740;22.174;2023-03-30T05:22:22;101110.63;;;2.16;62.45
50349;BME280;36250;48.740;22.174;2023-03-30T05:24:48;101113.66;;;2.21;62.88
50349;BME280;36250;48.740;22.174;2023-03-30T05:27:13;101111.44;;;2.32;62.26
50349;BME280;36250;48.740;22.174;2023-03-30T05:29:38;101110.72;;;2.38;62.37
50349;BME280;36250;48.740;22.174;2023-03-30T05:32:04;101109.72;;;2.39;62.13
50349;BME280;36250;48.740;22.174;2023-03-30T05:34:29;101111.34;;;2.48;62.37
50349;BME280;36250;48.740;22.174;2023-03-30T05:36:54;101107.13;;;2.54;61.40
50349;BME280;36250;48.740;22.174;2023-03-30T05:39:20;101108.13;;;2.53;59.91
50349;BME280;36250;48.740;22.174;2023-03-30T05:41:47;101101.38;;;2.57;60.79
50349;BME280;36250;48.740;22.174;2023-03-30T05:44:12;101102.66;;;2.69;59.76
50349;BME280;36250;48.740;22.174;2023-03-30T05:46:38;101094.53;;;2.77;60.04
50349;BME280;36250;48.740;22.174;2023-03-30T05:49:03;101085.78;;;2.83;59.75
50349;BME280;36250;48.740;22.174;2023-03-30T05:51:29;101087.38;;;2.92;59.42
50349;BME280;36250;48.740;22.174;2023-03-30T05:53:54;101089.84;;;3.02;59.45
50349;BME280;36250;48.740;22.174;2023-03-30T05:56:20;101087.25;;;3.08;58.91
50349;BME280;36250;48.740;22.174;2023-03-30T05:58:46;101086.00;;;3.19;57.84
50349;BME280;36250;48.740;22.174;2023-03-30T06:01:11;101089.78;;;3.33;56.79
50349;BME280;36250;48.740;22.174;2023-03-30T06:03:37;101090.88;;;3.38;55.27
50349;BME280;36250;48.740;22.174;2023-03-30T06:06:04;101092.66;;;3.46;54.75
50349;BME280;36250;48.740;22.174;2023-03-30T06:08:30;101097.13;;;3.53;57.24
50349;BME280;36250;48.740;22.174;2023-03-30T06:10:56;101098.69;;;3.48;58.76
50349;BME280;36250;48.740;22.174;2023-03-30T06:13:22;101101.22;;;3.49;58.26
50349;BME280;36250;48.740;22.174;2023-03-30T06:15:47;101095.19;;;3.47;58.16
50349;BME280;36250;48.740;22.174;2023-03-30T06:18:13;101101.56;;;3.46;57.15
50349;BME280;36250;48.740;22.174;2023-03-30T06:20:38;101096.44;;;3.37;57.78
50349;BME280;36250;48.740;22.174;2023-03-30T06:23:04;101101.84;;;3.37;57.97
50349;BME280;36250;48.740;22.174;2023-03-30T06:25:29;101110.91;;;3.36;57.87
50349;BME280;36250;48.740;22.174;2023-03-30T06:27:55;101117.97;;;3.37;58.36
50349;BME280;36250;48.740;22.174;2023-03-30T06:30:22;101108.97;;;3.29;58.62
50349;BME280;36250;48.740;22.174;2023-03-30T06:32:47;101107.75;;;3.32;58.19
50349;BME280;36250;48.740;22.174;2023-03-30T06:35:13;101104.56;;;3.28;57.61
50349;BME280;36250;48.740;22.174;2023-03-30T06:37:40;101106.25;;;3.29;57.56
50349;BME280;36250;48.740;22.174;2023-03-30T06:40:06;101113.59;;;3.36;57.52
50349;BME280;36250;48.740;22.174;2023-03-30T06:42:42;101112.78;;;3.50;57.65
50349;BME280;36250;48.740;22.174;2023-03-30T06:45:11;101109.97;;;3.66;56.73
50349;BME280;36250;48.740;22.174;2023-03-30T06:47:38;101104.59;;;3.80;55.86
50349;BME280;36250;48.740;22.174;2023-03-30T06:50:06;101111.69;;;3.96;55.32
50349;BME280;36250;48.740;22.174;2023-03-30T06:52:36;101111.84;;;4.09;54.90
50349;BME280;36250;48.740;22.174;2023-03-30T06:55:03;101110.00;;;4.24;55.02
50349;BME280;36250;48.740;22.174;2023-03-30T06:57:28;101115.72;;;4.36;55.55
50349;BME280;36250;48.740;22.174;2023-03-30T06:59:53;101109.47;;;4.50;53.80
50349;BME280;36250;48.740;22.174;2023-03-30T07:02:19;101103.41;;;4.62;53.68
50349;BME280;36250;48.740;22.174;2023-03-30T07:04:45;101108.50;;;4.72;53.09
50349;BME280;36250;48.740;22.174;2023-03-30T07:07:11;101099.47;;;4.80;52.38
50349;BME280;36250;48.740;22.174;2023-03-30T07:09:36;101101.59;;;4.84;51.88
50349;BME280;36250;48.740;22.174;2023-03-30T07:12:02;101099.34;;;4.88;51.47
50349;BME280;36250;48.740;22.174;2023-03-30T07:14:27;101101.47;;;4.92;51.25
50349;BME280;36250;48.740;22.174;2023-03-30T07:16:53;101095.50;;;4.97;50.21
50349;BME280;36250;48.740;22.174;2023-03-30T07:19:18;101091.19;;;5.02;50.11
50349;BME280;36250;48.740;22.174;2023-03-30T07:21:43;101095.59;;;5.03;49.92
50349;BME280;36250;48.740;22.174;2023-03-30T07:24:09;101107.84;;;5.06;49.86
50349;BME280;36250;48.740;22.174;2023-03-30T07:26:34;101107.44;;;5.09;49.13
50349;BME280;36250;48.740;22.174;2023-03-30T07:29:00;101115.81;;;5.14;49.00
50349;BME280;36250;48.740;22.174;2023-03-30T07:31:25;101118.75;;;5.19;48.94
50349;BME280;36250;48.740;22.174;2023-03-30T07:33:51;101115.88;;;5.20;48.33
50349;BME280;36250;48.740;22.174;2023-03-30T07:36:17;101116.97;;;5.26;47.90
50349;BME280;36250;48.740;22.174;2023-03-30T07:38:43;101110.81;;;5.32;48.77
50349;BME280;36250;48.740;22.174;2023-03-30T07:41:11;101113.13;;;5.35;47.84
50349;BME280;36250;48.740;22.174;2023-03-30T07:43:37;101110.41;;;5.35;48.38
50349;BME280;36250;48.740;22.174;2023-03-30T07:46:05;101103.06;;;5.29;47.11
50349;BME280;36250;48.740;22.174;2023-03-30T07:48:31;101100.63;;;5.34;47.68
50349;BME280;36250;48.740;22.174;2023-03-30T07:51:07;101103.13;;;5.36;47.93
50349;BME280;36250;48.740;22.174;2023-03-30T07:53:34;101095.25;;;5.34;46.87
50349;BME280;36250;48.740;22.174;2023-03-30T07:56:00;101097.19;;;5.40;47.49
50349;BME280;36250;48.740;22.174;2023-03-30T07:58:25;101097.84;;;5.49;47.31
50349;BME280;36250;48.740;22.174;2023-03-30T08:00:52;101103.28;;;5.55;47.96
50349;BME280;36250;48.740;22.174;2023-03-30T08:03:18;101092.09;;;5.58;47.28
50349;BME280;36250;48.740;22.174;2023-03-30T08:05:51;101096.75;;;5.64;47.45
50349;BME280;36250;48.740;22.174;2023-03-30T08:08:16;101092.41;;;5.70;47.86
50349;BME280;36250;48.740;22.174;2023-03-30T08:10:42;101085.63;;;5.80;47.41
50349;BME280;36250;48.740;22.174;2023-03-30T08:13:08;101074.72;;;5.88;47.10
50349;BME280;36250;48.740;22.174;2023-03-30T08:15:34;101078.28;;;5.95;46.57
50349;BME280;36250;48.740;22.174;2023-03-30T08:17:59;101075.44;;;6.04;45.84
50349;BME280;36250;48.740;22.174;2023-03-30T08:20:28;101074.81;;;6.08;45.75
50349;BME280;36250;48.740;22.174;2023-03-30T08:22:53;101073.34;;;6.06;45.30
50349;BME280;36250;48.740;22.174;2023-03-30T08:25:18;101080.16;;;6.02;45.25
50349;BME280;36250;48.740;22.174;2023-03-30T08:27:44;101079.53;;;6.00;44.23
50349;BME280;36250;48.740;22.174;2023-03-30T08:30:10;101081.44;;;5.99;45.65
50349;BME280;36250;48.740;22.174;2023-03-30T08:32:37;101080.38;;;6.00;45.10
50349;BME280;36250;48.740;22.174;2023-03-30T08:35:02;101073.75;;;6.03;45.05
50349;BME280;36250;48.740;22.174;2023-03-30T08:37:28;101082.06;;;6.01;44.48
50349;BME280;36250;48.740;22.174;2023-03-30T08:39:53;101079.59;;;6.06;45.00
50349;BME280;36250;48.740;22.174;2023-03-30T08:45:08;101080.09;;;6.23;45.43
50349;BME280;36250;48.740;22.174;2023-03-30T08:47:38;101075.56;;;6.30;44.26
50349;BME280;36250;48.740;22.174;2023-03-30T08:50:11;101073.09;;;6.35;44.40
50349;BME280;36250;48.740;22.174;2023-03-30T08:52:39;101062.69;;;6.38;43.77
50349;BME280;36250;48.740;22.174;2023-03-30T08:55:20;101064.75;;;6.36;44.26
50349;BME280;36250;48.740;22.174;2023-03-30T08:58:04;101055.63;;;6.44;43.83
50349;BME280;36250;48.740;22.174;2023-03-30T09:00:45;101058.16;;;6.52;43.79
50349;BME280;36250;48.740;22.174;2023-03-30T09:03:25;101059.41;;;6.56;43.73
50349;BME280;36250;48.740;22.174;2023-03-30T09:05:55;101049.91;;;6.67;44.59
50349;BME280;36250;48.740;22.174;2023-03-30T09:08:24;101049.91;;;6.73;45.23
50349;BME280;36250;48.740;22.174;2023-03-30T09:11:08;101059.31;;;6.84;43.99
50349;BME280;36250;48.740;22.174;2023-03-30T09:13:36;101057.00;;;6.87;44.58
50349;BME280;36250;48.740;22.174;2023-03-30T09:16:32;101052.88;;;6.91;43.80
50349;BME280;36250;48.740;22.174;2023-03-30T09:19:00;101055.97;;;6.88;44.03
50349;BME280;36250;48.740;22.174;2023-03-30T09:21:29;101047.22;;;6.93;43.79
50349;BME280;36250;48.740;22.174;2023-03-30T09:23:57;101056.81;;;6.95;43.27
50349;BME280;36250;48.740;22.174;2023-03-30T09:29:10;101037.47;;;7.05;43.26
50349;BME280;36250;48.740;22.174;2023-03-30T09:32:16;101023.72;;;7.19;43.72
50349;BME280;36250;48.740;22.174;2023-03-30T09:34:50;101020.41;;;7.31;43.67
50349;BME280;36250;48.740;22.174;2023-03-30T09:37:18;101026.84;;;7.43;43.14
50349;BME280;36250;48.740;22.174;2023-03-30T09:39:46;101019.16;;;7.53;43.24
50349;BME280;36250;48.740;22.174;2023-03-30T09:42:28;101008.88;;;7.68;43.67
50349;BME280;36250;48.740;22.174;2023-03-30T09:45:10;101008.03;;;7.87;44.67
50349;BME280;36250;48.740;22.174;2023-03-30T09:47:38;101010.47;;;7.95;42.80
50349;BME280;36250;48.740;22.174;2023-03-30T09:50:15;101014.19;;;8.07;42.18
50349;BME280;36250;48.740;22.174;2023-03-30T09:52:53;100998.75;;;8.14;41.90
50349;BME280;36250;48.740;22.174;2023-03-30T09:57:46;100987.16;;;8.45;42.00
50349;BME280;36250;48.740;22.174;2023-03-30T10:00:31;100988.75;;;8.59;41.77
50349;BME280;36250;48.740;22.174;2023-03-30T10:03:02;100987.66;;;8.67;41.23
50349;BME280;36250;48.740;22.174;2023-03-30T10:05:30;100981.13;;;8.74;41.27
50349;BME280;36250;48.740;22.174;2023-03-30T10:08:04;100974.78;;;8.87;41.65
50349;BME280;36250;48.740;22.174;2023-03-30T10:10:33;100970.13;;;8.94;40.53
50349;BME280;36250;48.740;22.174;2023-03-30T10:13:07;100979.66;;;9.03;41.14
50349;BME280;36250;48.740;22.174;2023-03-30T10:15:36;100982.50;;;9.14;41.15
50349;BME280;36250;48.740;22.174;2023-03-30T10:18:23;100979.13;;;9.19;40.38
50349;BME280;36250;48.740;22.174;2023-03-30T10:21:02;100980.00;;;9.13;41.26
50349;BME280;36250;48.740;22.174;2023-03-30T10:23:31;100974.63;;;9.06;40.82
50349;BME280;36250;48.740;22.174;2023-03-30T10:26:01;100973.34;;;9.09;41.02
50349;BME280;36250;48.740;22.174;2023-03-30T10:28:30;100958.19;;;9.19;41.62
50349;BME280;36250;48.740;22.174;2023-03-30T10:31:00;100961.41;;;9.35;41.60
50349;BME280;36250;48.740;22.174;2023-03-30T10:33:28;100953.50;;;9.33;40.65
50349;BME280;36250;48.740;22.174;2023-03-30T10:35:56;100957.09;;;9.27;40.52
50349;BME280;36250;48.740;22.174;2023-03-30T10:38:29;100957.41;;;9.19;42.07
50349;BME280;36250;48.740;22.174;2023-03-30T10:41:02;100964.47;;;9.20;41.58
50349;BME280;36250;48.740;22.174;2023-03-30T10:43:32;100965.63;;;9.06;41.73
50349;BME280;36250;48.740;22.174;2023-03-30T10:46:07;100957.00;;;8.91;41.41
50349;BME280;36250;48.740;22.174;2023-03-30T10:48:50;100946.63;;;8.81;42.03
50349;BME280;36250;48.740;22.174;2023-03-30T10:51:32;100938.88;;;8.85;42.43
50349;BME280;36250;48.740;22.174;2023-03-30T10:56:51;100939.81;;;8.97;42.68
50349;BME280;36250;48.740;22.174;2023-03-30T10:59:30;100940.09;;;8.89;42.82
50349;BME280;36250;48.740;22.174;2023-03-30T11:05:07;100928.69;;;8.80;43.46
50349;BME280;36250;48.740;22.174;2023-03-30T11:08:00;100922.44;;;8.80;43.05
50349;BME280;36250;48.740;22.174;2023-03-30T11:10:29;100912.59;;;8.79;43.41
50349;BME280;36250;48.740;22.174;2023-03-30T11:13:13;100898.88;;;8.74;43.72
50349;BME280;36250;48.740;22.174;2023-03-30T11:15:48;100907.00;;;8.74;43.94
50349;BME280;36250;48.740;22.174;2023-03-30T11:20:59;100901.41;;;8.69;43.80
50349;BME280;36250;48.740;22.174;2023-03-30T11:23:51;100891.63;;;8.68;44.18
50349;BME280;36250;48.740;22.174;2023-03-30T11:26:33;100908.84;;;8.80;44.19
50349;BME280;36250;48.740;22.174;2023-03-30T11:29:12;100898.88;;;8.74;43.64
50349;BME280;36250;48.740;22.174;2023-03-30T11:35:09;100884.59;;;8.85;44.29
50349;BME280;36250;48.740;22.174;2023-03-30T11:37:48;100877.41;;;8.90;44.06
50349;BME280;36250;48.740;22.174;2023-03-30T11:40:19;100870.19;;;9.02;44.41
50349;BME280;36250;48.740;22.174;2023-03-30T11:42:46;100858.00;;;9.11;44.37
50349;BME280;36250;48.740;22.174;2023-03-30T11:45:31;100856.41;;;9.22;43.98
50349;BME280;36250;48.740;22.174;2023-03-30T11:53:32;100848.13;;;9.35;44.47
50349;BME280;36250;48.740;22.174;2023-03-30T11:56:06;100845.81;;;9.39;43.45
50349;BME280;36250;48.740;22.174;2023-03-30T11:58:47;100838.31;;;9.34;43.62
50349;BME280;36250;48.740;22.174;2023-03-30T12:01:29;100835.69;;;9.27;44.05
50349;BME280;36250;48.740;22.174;2023-03-30T12:04:11;100827.63;;;9.21;43.77
50349;BME280;36250;48.740;22.174;2023-03-30T12:06:39;100827.91;;;9.13;43.64
50349;BME280;36250;48.740;22.174;2023-03-30T12:09:19;100816.00;;;9.14;44.32
50349;BME280;36250;48.740;22.174;2023-03-30T12:14:37;100811.84;;;9.30;44.27
50349;BME280;36250;48.740;22.174;2023-03-30T12:20:04;100810.78;;;9.31;44.33
50349;BME280;36250;48.740;22.174;2023-03-30T12:28:13;100788.41;;;9.47;45.25
50349;BME280;36250;48.740;22.174;2023-03-30T12:30:59;100786.69;;;9.52;44.73
50349;BME280;36250;48.740;22.174;2023-03-30T12:33:27;100768.84;;;9.56;44.36
50349;BME280;36250;48.740;22.174;2023-03-30T12:35:58;100773.06;;;9.70;44.86
50349;BME280;36250;48.740;22.174;2023-03-30T12:38:26;100763.06;;;9.82;43.95
50349;BME280;36250;48.740;22.174;2023-03-30T12:41:05;100753.63;;;9.97;44.62
50349;BME280;36250;48.740;22.174;2023-03-30T12:43:48;100760.97;;;10.08;44.84
50349;BME280;36250;48.740;22.174;2023-03-30T12:46:34;100765.22;;;10.22;44.19
50349;BME280;36250;48.740;22.174;2023-03-30T12:49:20;100758.94;;;10.33;44.14
50349;BME280;36250;48.740;22.174;2023-03-30T12:52:05;100739.44;;;10.36;42.78
50349;BME280;36250;48.740;22.174;2023-03-30T13:05:17;100722.38;;;10.29;44.02
50349;BME280;36250;48.740;22.174;2023-03-30T13:07:43;100717.75;;;10.18;44.23
50349;BME280;36250;48.740;22.174;2023-03-30T13:12:58;100720.69;;;10.05;45.40
50349;BME280;36250;48.740;22.174;2023-03-30T13:15:39;100712.72;;;9.91;44.81
50349;BME280;36250;48.740;22.174;2023-03-30T13:25:42;100715.59;;;9.67;46.26
50349;BME280;36250;48.740;22.174;2023-03-30T13:36:45;100698.63;;;9.42;47.69
50349;BME280;36250;48.740;22.174;2023-03-30T13:42:04;100688.91;;;9.34;48.35
50349;BME280;36250;48.740;22.174;2023-03-30T13:44:53;100686.06;;;9.29;48.39
50349;BME280;36250;48.740;22.174;2023-03-30T13:49:58;100664.34;;;9.29;49.24
50349;BME280;36250;48.740;22.174;2023-03-30T13:52:31;100671.41;;;9.30;49.64
50349;BME280;36250;48.740;22.174;2023-03-30T13:54:59;100669.78;;;9.29;50.01
50349;BME280;36250;48.740;22.174;2023-03-30T13:57:33;100662.28;;;9.24;50.29
50349;BME280;36250;48.740;22.174;2023-03-30T14:08:44;100656.81;;;9.13;50.93
50349;BME280;36250;48.740;22.174;2023-03-30T14:11:36;100654.09;;;9.13;50.96
50349;BME280;36250;48.740;22.174;2023-03-30T14:14:03;100651.97;;;9.15;51.14
50349;BME280;36250;48.740;22.174;2023-03-30T14:16:35;100639.81;;;9.17;51.99
50349;BME280;36250;48.740;22.174;2023-03-30T14:19:14;100639.00;;;9.17;52.29
50349;BME280;36250;48.740;22.174;2023-03-30T14:21:43;100643.81;;;9.15;52.07
50349;BME280;36250;48.740;22.174;2023-03-30T14:24:14;100642.41;;;9.12;53.16
50349;BME280;36250;48.740;22.174;2023-03-30T14:26:40;100645.34;;;9.11;53.90
50349;BME280;36250;48.740;22.174;2023-03-30T14:29:13;100641.22;;;9.08;54.44
50349;BME280;36250;48.740;22.174;2023-03-30T14:31:40;100634.34;;;9.06;54.63
50349;BME280;36250;48.740;22.174;2023-03-30T14:37:04;100624.88;;;8.97;54.96
50349;BME280;36250;48.740;22.174;2023-03-30T14:39:31;100626.38;;;8.93;55.63
50349;BME280;36250;48.740;22.174;2023-03-30T14:42:16;100625.19;;;8.89;55.75
50349;BME280;36250;48.740;22.174;2023-03-30T14:44:47;100620.19;;;8.86;56.73
50349;BME280;36250;48.740;22.174;2023-03-30T14:47:17;100616.06;;;8.83;57.04
50349;BME280;36250;48.740;22.174;2023-03-30T14:49:43;100624.69;;;8.80;57.17
50349;BME280;36250;48.740;22.174;2023-03-30T14:52:17;100619.13;;;8.75;57.04
50349;BME280;36250;48.740;22.174;2023-03-30T14:54:44;100619.31;;;8.74;56.88
50349;BME280;36250;48.740;22.174;2023-03-30T14:57:11;100609.53;;;8.73;57.30
50349;BME280;36250;48.740;22.174;2023-03-30T14:59:44;100612.47;;;8.71;57.85
50349;BME280;36250;48.740;22.174;2023-03-30T15:02:18;100606.69;;;8.68;57.84
50349;BME280;36250;48.740;22.174;2023-03-30T15:04:44;100604.19;;;8.66;57.38
50349;BME280;36250;48.740;22.174;2023-03-30T15:07:13;100597.09;;;8.65;57.03
50349;BME280;36250;48.740;22.174;2023-03-30T15:09:40;100590.59;;;8.66;57.38
50349;BME280;36250;48.740;22.174;2023-03-30T15:12:06;100588.72;;;8.67;57.22
50349;BME280;36250;48.740;22.174;2023-03-30T15:14:36;100587.06;;;8.66;56.89
50349;BME280;36250;48.740;22.174;2023-03-30T15:17:14;100595.81;;;8.68;57.29
50349;BME280;36250;48.740;22.174;2023-03-30T15:19:40;100593.25;;;8.73;56.52